Spokane, Washington
Current Conditions -  °F | °C
As of 5:53 PM on Thursday 20 Nov 2014 (Local Time) from KSFF Reporting Station
Haze Haze  
Wind Chill: 34°   Ceiling: 1200
Heat Index: 34°   Visibility: 5mi
Dew Point: 29°   Wind: 0mph
Humidity: 82%   Direction: NA
Pressure: 30.03"   Gusts: NA
Location:  47.66°N, 117.41°W
Report Text: KSFF 210153Z 00000KT 5SM HZ OVC012 01/M02 A3003 RMK AO2 SLP183 T00111017
Loading
Personal Weather Stations






























Interactive Weather Map New forecast layout! Learn more

10-Day Weather Forecast

Advertisements
Track Severe Weather on mobile